sensor_id;sensor_type;location;lat;lon;timestamp;pressure;altitude;pressure_sealevel;temperature;humidity
76404;BME280;65232;48.358;2.122;2024-01-16T00:00:17;100672.19;;;-3.16;95.51
76404;BME280;65232;48.358;2.122;2024-01-16T00:00:43;100676.59;;;-3.18;95.76
76404;BME280;65232;48.358;2.122;2024-01-16T00:01:08;100676.59;;;-3.18;95.85
76404;BME280;65232;48.358;2.122;2024-01-16T00:01:34;100673.03;;;-3.15;95.92
76404;BME280;65232;48.358;2.122;2024-01-16T00:01:59;100675.56;;;-3.12;95.82
76404;BME280;65232;48.358;2.122;2024-01-16T00:02:25;100672.09;;;-3.13;95.86
76404;BME280;65232;48.358;2.122;2024-01-16T00:02:50;100677.09;;;-3.05;95.57
76404;BME280;65232;48.358;2.122;2024-01-16T00:03:16;100667.31;;;-2.99;95.68
76404;BME280;65232;48.358;2.122;2024-01-16T00:03:41;100668.28;;;-3.03;95.56
76404;BME280;65232;48.358;2.122;2024-01-16T00:04:06;100681.34;;;-3.01;95.85
76404;BME280;65232;48.358;2.122;2024-01-16T00:04:33;100679.38;;;-2.95;95.28
76404;BME280;65232;48.358;2.122;2024-01-16T00:04:58;100678.44;;;-2.92;95.31
76404;BME280;65232;48.358;2.122;2024-01-16T00:05:24;100671.34;;;-2.89;94.65
76404;BME280;65232;48.358;2.122;2024-01-16T00:05:49;100670.53;;;-2.91;94.73
76404;BME280;65232;48.358;2.122;2024-01-16T00:06:15;100671.56;;;-2.96;94.79
76404;BME280;65232;48.358;2.122;2024-01-16T00:06:41;100673.69;;;-3.09;94.87
76404;BME280;65232;48.358;2.122;2024-01-16T00:07:06;100666.00;;;-3.13;95.35
76404;BME280;65232;48.358;2.122;2024-01-16T00:07:32;100666.78;;;-3.11;95.24
76404;BME280;65232;48.358;2.122;2024-01-16T00:07:59;100671.19;;;-3.12;95.26
76404;BME280;65232;48.358;2.122;2024-01-16T00:08:25;100669.53;;;-3.14;95.35
76404;BME280;65232;48.358;2.122;2024-01-16T00:08:50;100674.63;;;-3.11;95.33
76404;BME280;65232;48.358;2.122;2024-01-16T00:09:15;100666.75;;;-3.10;95.35
76404;BME280;65232;48.358;2.122;2024-01-16T00:09:41;100669.28;;;-3.07;95.30
76404;BME280;65232;48.358;2.122;2024-01-16T00:10:09;100665.84;;;-3.09;95.92
76404;BME280;65232;48.358;2.122;2024-01-16T00:10:34;100658.00;;;-3.09;95.91
76404;BME280;65232;48.358;2.122;2024-01-16T00:11:02;100666.50;;;-3.01;95.56
76404;BME280;65232;48.358;2.122;2024-01-16T00:11:27;100664.09;;;-3.08;95.25
76404;BME280;65232;48.358;2.122;2024-01-16T00:11:52;100664.81;;;-3.03;95.33
76404;BME280;65232;48.358;2.122;2024-01-16T00:12:18;100666.75;;;-3.10;95.24
76404;BME280;65232;48.358;2.122;2024-01-16T00:12:43;100668.47;;;-3.09;95.46
76404;BME280;65232;48.358;2.122;2024-01-16T00:13:09;100667.59;;;-3.09;95.26
76404;BME280;65232;48.358;2.122;2024-01-16T00:13:34;100660.78;;;-3.13;95.31
76404;BME280;65232;48.358;2.122;2024-01-16T00:14:00;100668.56;;;-3.12;95.21
76404;BME280;65232;48.358;2.122;2024-01-16T00:14:25;100668.09;;;-3.26;95.15
76404;BME280;65232;48.358;2.122;2024-01-16T00:14:50;100667.06;;;-3.21;95.12
76404;BME280;65232;48.358;2.122;2024-01-16T00:15:16;100667.16;;;-3.24;94.90
76404;BME280;65232;48.358;2.122;2024-01-16T00:15:42;100668.19;;;-3.29;94.85
76404;BME280;65232;48.358;2.122;2024-01-16T00:16:07;100674.28;;;-3.29;95.21
76404;BME280;65232;48.358;2.122;2024-01-16T00:16:33;100670.53;;;-3.20;94.96
76404;BME280;65232;48.358;2.122;2024-01-16T00:16:58;100668.03;;;-3.25;95.69
76404;BME280;65232;48.358;2.122;2024-01-16T00:17:24;100673.28;;;-3.25;95.25
76404;BME280;65232;48.358;2.122;2024-01-16T00:17:49;100666.19;;;-3.21;95.37
76404;BME280;65232;48.358;2.122;2024-01-16T00:18:16;100662.53;;;-3.14;95.41
76404;BME280;65232;48.358;2.122;2024-01-16T00:18:41;100665.09;;;-3.12;94.87
76404;BME280;65232;48.358;2.122;2024-01-16T00:19:07;100666.00;;;-3.13;94.37
76404;BME280;65232;48.358;2.122;2024-01-16T00:19:32;100665.81;;;-3.07;94.35
76404;BME280;65232;48.358;2.122;2024-01-16T00:19:58;100662.38;;;-3.09;94.05
76404;BME280;65232;48.358;2.122;2024-01-16T00:20:25;100665.16;;;-3.14;94.64
76404;BME280;65232;48.358;2.122;2024-01-16T00:20:51;100662.47;;;-3.12;95.08
76404;BME280;65232;48.358;2.122;2024-01-16T00:21:16;100664.16;;;-3.11;94.51
76404;BME280;65232;48.358;2.122;2024-01-16T00:21:44;100656.38;;;-3.13;93.98
76404;BME280;65232;48.358;2.122;2024-01-16T00:22:13;100654.34;;;-3.03;93.87
76404;BME280;65232;48.358;2.122;2024-01-16T00:22:38;100655.25;;;-3.04;93.20
76404;BME280;65232;48.358;2.122;2024-01-16T00:23:04;100659.63;;;-3.05;93.61
76404;BME280;65232;48.358;2.122;2024-01-16T00:23:29;100663.38;;;-3.13;93.57
76404;BME280;65232;48.358;2.122;2024-01-16T00:23:57;100660.03;;;-3.18;94.18
76404;BME280;65232;48.358;2.122;2024-01-16T00:24:23;100667.03;;;-3.19;94.28
76404;BME280;65232;48.358;2.122;2024-01-16T00:24:48;100668.81;;;-3.21;94.30
76404;BME280;65232;48.358;2.122;2024-01-16T00:25:13;100667.28;;;-3.28;94.29
76404;BME280;65232;48.358;2.122;2024-01-16T00:25:39;100673.38;;;-3.28;94.63
76404;BME280;65232;48.358;2.122;2024-01-16T00:26:05;100665.81;;;-3.38;94.99
76404;BME280;65232;48.358;2.122;2024-01-16T00:26:30;100675.34;;;-3.36;94.89
76404;BME280;65232;48.358;2.122;2024-01-16T00:26:56;100671.78;;;-3.33;95.14
76404;BME280;65232;48.358;2.122;2024-01-16T00:27:21;100673.66;;;-3.38;95.42
76404;BME280;65232;48.358;2.122;2024-01-16T00:27:47;100679.72;;;-3.36;95.57
76404;BME280;65232;48.358;2.122;2024-01-16T00:28:12;100668.34;;;-3.35;95.65
76404;BME280;65232;48.358;2.122;2024-01-16T00:28:37;100672.66;;;-3.33;95.48
76404;BME280;65232;48.358;2.122;2024-01-16T00:29:03;100670.16;;;-3.37;95.49
76404;BME280;65232;48.358;2.122;2024-01-16T00:29:28;100673.47;;;-3.31;95.92
76404;BME280;65232;48.358;2.122;2024-01-16T00:29:55;100671.88;;;-3.36;95.55
76404;BME280;65232;48.358;2.122;2024-01-16T00:30:21;100672.91;;;-3.42;95.74
76404;BME280;65232;48.358;2.122;2024-01-16T00:30:46;100674.69;;;-3.42;96.03
76404;BME280;65232;48.358;2.122;2024-01-16T00:31:12;100679.09;;;-3.44;96.05
76404;BME280;65232;48.358;2.122;2024-01-16T00:31:38;100671.16;;;-3.41;95.76
76404;BME280;65232;48.358;2.122;2024-01-16T00:32:04;100670.22;;;-3.40;95.21
76404;BME280;65232;48.358;2.122;2024-01-16T00:32:30;100669.44;;;-3.42;95.23
76404;BME280;65232;48.358;2.122;2024-01-16T00:32:55;100676.47;;;-3.44;95.18
76404;BME280;65232;48.358;2.122;2024-01-16T00:33:20;100672.06;;;-3.42;95.71
76404;BME280;65232;48.358;2.122;2024-01-16T00:33:46;100672.91;;;-3.42;95.26
76404;BME280;65232;48.358;2.122;2024-01-16T00:34:11;100676.47;;;-3.44;95.27
76404;BME280;65232;48.358;2.122;2024-01-16T00:34:37;100676.47;;;-3.44;95.32
76404;BME280;65232;48.358;2.122;2024-01-16T00:35:03;100672.69;;;-3.34;95.23
76404;BME280;65232;48.358;2.122;2024-01-16T00:35:29;100663.00;;;-3.31;95.59
76404;BME280;65232;48.358;2.122;2024-01-16T00:35:54;100663.13;;;-3.35;95.65
76404;BME280;65232;48.358;2.122;2024-01-16T00:36:19;100670.00;;;-3.31;95.51
76404;BME280;65232;48.358;2.122;2024-01-16T00:36:45;100667.41;;;-3.33;95.95
76404;BME280;65232;48.358;2.122;2024-01-16T00:37:10;100669.94;;;-3.30;96.21
76404;BME280;65232;48.358;2.122;2024-01-16T00:37:36;100662.09;;;-3.30;96.04
76404;BME280;65232;48.358;2.122;2024-01-16T00:38:02;100668.09;;;-3.26;95.99
76404;BME280;65232;48.358;2.122;2024-01-16T00:38:28;100665.34;;;-3.22;95.60
76404;BME280;65232;48.358;2.122;2024-01-16T00:38:53;100670.50;;;-3.18;95.57
76404;BME280;65232;48.358;2.122;2024-01-16T00:39:19;100667.09;;;-3.22;95.40
76404;BME280;65232;48.358;2.122;2024-01-16T00:39:44;100668.94;;;-3.26;95.24
76404;BME280;65232;48.358;2.122;2024-01-16T00:40:10;100668.22;;;-3.31;95.58
76404;BME280;65232;48.358;2.122;2024-01-16T00:40:36;100673.66;;;-3.38;94.82
76404;BME280;65232;48.358;2.122;2024-01-16T00:41:01;100666.59;;;-3.35;94.82
76404;BME280;65232;48.358;2.122;2024-01-16T00:41:27;100666.47;;;-3.30;94.81
76404;BME280;65232;48.358;2.122;2024-01-16T00:41:52;100667.16;;;-3.24;94.87
76404;BME280;65232;48.358;2.122;2024-01-16T00:42:17;100668.19;;;-3.29;94.70
76404;BME280;65232;48.358;2.122;2024-01-16T00:42:43;100660.69;;;-3.41;94.33
76404;BME280;65232;48.358;2.122;2024-01-16T00:43:08;100665.22;;;-3.48;94.65
76404;BME280;65232;48.358;2.122;2024-01-16T00:43:34;100658.09;;;-3.41;94.62
76404;BME280;65232;48.358;2.122;2024-01-16T00:44:00;100662.31;;;-3.37;94.73
76404;BME280;65232;48.358;2.122;2024-01-16T00:44:25;100662.50;;;-3.43;94.57
76404;BME280;65232;48.358;2.122;2024-01-16T00:44:51;100661.63;;;-3.44;94.37
76404;BME280;65232;48.358;2.122;2024-01-16T00:45:16;100661.69;;;-3.45;94.51
76404;BME280;65232;48.358;2.122;2024-01-16T00:45:42;100658.25;;;-3.47;94.36
76404;BME280;65232;48.358;2.122;2024-01-16T00:46:07;100650.28;;;-3.43;94.45
76404;BME280;65232;48.358;2.122;2024-01-16T00:46:33;100653.84;;;-3.45;94.21
76404;BME280;65232;48.358;2.122;2024-01-16T00:46:58;100656.22;;;-3.38;94.19
76404;BME280;65232;48.358;2.122;2024-01-16T00:47:26;100651.84;;;-3.37;94.12
76404;BME280;65232;48.358;2.122;2024-01-16T00:47:52;100652.34;;;-3.25;93.73
76404;BME280;65232;48.358;2.122;2024-01-16T00:48:17;100651.72;;;-3.33;93.86
76404;BME280;65232;48.358;2.122;2024-01-16T00:48:44;100647.28;;;-3.29;94.53
76404;BME280;65232;48.358;2.122;2024-01-16T00:49:10;100642.25;;;-3.37;94.48
76404;BME280;65232;48.358;2.122;2024-01-16T00:49:35;100646.59;;;-3.37;94.50
76404;BME280;65232;48.358;2.122;2024-01-16T00:50:01;100645.56;;;-3.30;94.79
76404;BME280;65232;48.358;2.122;2024-01-16T00:50:27;100649.09;;;-3.33;94.47
76404;BME280;65232;48.358;2.122;2024-01-16T00:50:52;100657.06;;;-3.37;94.79
76404;BME280;65232;48.358;2.122;2024-01-16T00:51:18;100644.91;;;-3.38;94.74
76404;BME280;65232;48.358;2.122;2024-01-16T00:51:43;100657.97;;;-3.38;94.84
76404;BME280;65232;48.358;2.122;2024-01-16T00:52:10;100660.78;;;-3.44;95.69
76404;BME280;65232;48.358;2.122;2024-01-16T00:52:35;100658.88;;;-3.39;95.62
76404;BME280;65232;48.358;2.122;2024-01-16T00:53:00;100651.06;;;-3.41;95.47
76404;BME280;65232;48.358;2.122;2024-01-16T00:53:26;100661.38;;;-3.35;94.96
76404;BME280;65232;48.358;2.122;2024-01-16T00:53:52;100654.28;;;-3.31;94.91
76404;BME280;65232;48.358;2.122;2024-01-16T00:54:17;100656.97;;;-3.33;94.57
76404;BME280;65232;48.358;2.122;2024-01-16T00:54:43;100656.13;;;-3.35;93.95
76404;BME280;65232;48.358;2.122;2024-01-16T00:55:09;100658.75;;;-3.35;93.83
76404;BME280;65232;48.358;2.122;2024-01-16T00:55:34;100658.88;;;-3.39;93.69
76404;BME280;65232;48.358;2.122;2024-01-16T00:55:59;100658.31;;;-3.50;94.28
76404;BME280;65232;48.358;2.122;2024-01-16T00:56:25;100674.19;;;-3.57;94.69
76404;BME280;65232;48.358;2.122;2024-01-16T00:56:53;100670.50;;;-3.49;94.41
76404;BME280;65232;48.358;2.122;2024-01-16T00:57:24;100673.19;;;-3.52;94.45
76404;BME280;65232;48.358;2.122;2024-01-16T00:57:51;100667.03;;;-3.50;94.19
76404;BME280;65232;48.358;2.122;2024-01-16T00:58:17;100672.38;;;-3.55;94.21
76404;BME280;65232;48.358;2.122;2024-01-16T00:58:42;100666.28;;;-3.55;94.42
76404;BME280;65232;48.358;2.122;2024-01-16T00:59:07;100666.38;;;-3.58;94.30
76404;BME280;65232;48.358;2.122;2024-01-16T00:59:33;100669.00;;;-3.58;94.33
76404;BME280;65232;48.358;2.122;2024-01-16T00:59:58;100666.44;;;-3.60;94.72
76404;BME280;65232;48.358;2.122;2024-01-16T01:00:24;100662.16;;;-3.64;95.11
76404;BME280;65232;48.358;2.122;2024-01-16T01:00:49;100658.84;;;-3.70;95.10
76404;BME280;65232;48.358;2.122;2024-01-16T01:01:15;100660.72;;;-3.74;95.29
76404;BME280;65232;48.358;2.122;2024-01-16T01:01:40;100654.41;;;-3.67;94.78
76404;BME280;65232;48.358;2.122;2024-01-16T01:02:06;100646.38;;;-3.59;94.83
76404;BME280;65232;48.358;2.122;2024-01-16T01:02:31;100654.97;;;-3.56;95.23
76404;BME280;65232;48.358;2.122;2024-01-16T01:02:57;100650.50;;;-3.52;95.10
76404;BME280;65232;48.358;2.122;2024-01-16T01:03:23;100651.44;;;-3.55;94.96
76404;BME280;65232;48.358;2.122;2024-01-16T01:03:50;100639.94;;;-3.47;95.23
76404;BME280;65232;48.358;2.122;2024-01-16T01:04:16;100642.66;;;-3.52;95.29
76404;BME280;65232;48.358;2.122;2024-01-16T01:04:42;100658.31;;;-3.50;95.15
76404;BME280;65232;48.358;2.122;2024-01-16T01:05:08;100649.56;;;-3.49;95.01
76404;BME280;65232;48.358;2.122;2024-01-16T01:05:34;100653.16;;;-3.53;95.57
76404;BME280;65232;48.358;2.122;2024-01-16T01:06:00;100646.16;;;-3.51;95.83
76404;BME280;65232;48.358;2.122;2024-01-16T01:06:25;100643.53;;;-3.51;95.59
76404;BME280;65232;48.358;2.122;2024-01-16T01:06:51;100647.91;;;-3.52;95.15
76404;BME280;65232;48.358;2.122;2024-01-16T01:07:16;100652.28;;;-3.52;94.98
76404;BME280;65232;48.358;2.122;2024-01-16T01:07:42;100639.06;;;-3.48;94.90
76404;BME280;65232;48.358;2.122;2024-01-16T01:08:07;100642.44;;;-3.43;94.95
76404;BME280;65232;48.358;2.122;2024-01-16T01:08:33;100644.06;;;-3.40;94.72
76404;BME280;65232;48.358;2.122;2024-01-16T01:08:58;100639.81;;;-3.43;94.54
76404;BME280;65232;48.358;2.122;2024-01-16T01:09:24;100638.19;;;-3.47;94.57
76404;BME280;65232;48.358;2.122;2024-01-16T01:09:50;100632.88;;;-3.44;94.94
76404;BME280;65232;48.358;2.122;2024-01-16T01:10:15;100636.34;;;-3.43;95.13
76404;BME280;65232;48.358;2.122;2024-01-16T01:10:40;100638.00;;;-3.41;94.66
76404;BME280;65232;48.358;2.122;2024-01-16T01:11:06;100634.53;;;-3.41;94.95
76404;BME280;65232;48.358;2.122;2024-01-16T01:11:31;100638.09;;;-3.44;94.91
76404;BME280;65232;48.358;2.122;2024-01-16T01:11:57;100639.94;;;-3.47;94.32
76404;BME280;65232;48.358;2.122;2024-01-16T01:12:22;100646.75;;;-3.42;94.30
76404;BME280;65232;48.358;2.122;2024-01-16T01:12:48;100637.28;;;-3.46;93.56
76404;BME280;65232;48.358;2.122;2024-01-16T01:13:14;100649.38;;;-3.42;93.95
76404;BME280;65232;48.358;2.122;2024-01-16T01:13:39;100640.69;;;-3.42;93.60
76404;BME280;65232;48.358;2.122;2024-01-16T01:14:05;100635.28;;;-3.38;93.22
76404;BME280;65232;48.358;2.122;2024-01-16T01:14:30;100644.16;;;-3.42;93.33
76404;BME280;65232;48.358;2.122;2024-01-16T01:14:56;100643.50;;;-3.50;93.19
76404;BME280;65232;48.358;2.122;2024-01-16T01:15:22;100642.59;;;-3.49;93.49
76404;BME280;65232;48.358;2.122;2024-01-16T01:15:48;100632.28;;;-3.55;93.56
76404;BME280;65232;48.358;2.122;2024-01-16T01:16:13;100642.81;;;-3.57;93.53
76404;BME280;65232;48.358;2.122;2024-01-16T01:16:39;100645.44;;;-3.57;93.48
76404;BME280;65232;48.358;2.122;2024-01-16T01:17:04;100641.19;;;-3.61;93.38
76404;BME280;65232;48.358;2.122;2024-01-16T01:17:30;100639.56;;;-3.66;93.59
76404;BME280;65232;48.358;2.122;2024-01-16T01:17:55;100642.16;;;-3.65;93.48
76404;BME280;65232;48.358;2.122;2024-01-16T01:18:21;100642.84;;;-3.58;93.82
76404;BME280;65232;48.358;2.122;2024-01-16T01:18:47;100630.66;;;-3.58;93.37
76404;BME280;65232;48.358;2.122;2024-01-16T01:19:13;100645.44;;;-3.57;93.67
76404;BME280;65232;48.358;2.122;2024-01-16T01:19:39;100633.09;;;-3.53;93.65
76404;BME280;65232;48.358;2.122;2024-01-16T01:20:05;100646.22;;;-3.55;93.48
76404;BME280;65232;48.358;2.122;2024-01-16T01:20:31;100645.50;;;-3.60;93.71
76404;BME280;65232;48.358;2.122;2024-01-16T01:20:56;100645.59;;;-3.63;93.15
76404;BME280;65232;48.358;2.122;2024-01-16T01:21:22;100645.47;;;-3.58;93.13
76404;BME280;65232;48.358;2.122;2024-01-16T01:21:47;100638.66;;;-3.64;93.62
76404;BME280;65232;48.358;2.122;2024-01-16T01:22:13;100653.34;;;-3.60;93.78
76404;BME280;65232;48.358;2.122;2024-01-16T01:22:38;100648.19;;;-3.63;93.73
76404;BME280;65232;48.358;2.122;2024-01-16T01:23:04;100647.19;;;-3.57;94.36
76404;BME280;65232;48.358;2.122;2024-01-16T01:23:29;100643.66;;;-3.56;93.96
76404;BME280;65232;48.358;2.122;2024-01-16T01:23:55;100652.47;;;-3.59;94.26
76404;BME280;65232;48.358;2.122;2024-01-16T01:24:20;100649.97;;;-3.63;94.70
76404;BME280;65232;48.358;2.122;2024-01-16T01:24:45;100649.81;;;-3.57;94.20
76404;BME280;65232;48.358;2.122;2024-01-16T01:25:11;100645.47;;;-3.58;94.61
76404;BME280;65232;48.358;2.122;2024-01-16T01:25:37;100647.19;;;-3.57;94.18
76404;BME280;65232;48.358;2.122;2024-01-16T01:26:03;100646.22;;;-3.55;94.08
76404;BME280;65232;48.358;2.122;2024-01-16T01:26:29;100645.25;;;-3.50;94.49
76404;BME280;65232;48.358;2.122;2024-01-16T01:26:55;100649.69;;;-3.54;94.19
76404;BME280;65232;48.358;2.122;2024-01-16T01:27:20;100651.28;;;-3.48;94.05
76404;BME280;65232;48.358;2.122;2024-01-16T01:27:46;100649.56;;;-3.49;94.25
76404;BME280;65232;48.358;2.122;2024-01-16T01:28:12;100657.56;;;-3.56;94.33
76404;BME280;65232;48.358;2.122;2024-01-16T01:28:38;100658.41;;;-3.53;94.21
76404;BME280;65232;48.358;2.122;2024-01-16T01:29:05;100652.53;;;-3.62;94.50
76404;BME280;65232;48.358;2.122;2024-01-16T01:29:30;100661.34;;;-3.66;94.77
76404;BME280;65232;48.358;2.122;2024-01-16T01:29:57;100652.00;;;-3.74;94.58
76404;BME280;65232;48.358;2.122;2024-01-16T01:30:23;100655.44;;;-3.72;94.44
76404;BME280;65232;48.358;2.122;2024-01-16T01:30:48;100658.63;;;-3.61;94.30
76404;BME280;65232;48.358;2.122;2024-01-16T01:31:14;100655.94;;;-3.58;93.88
76404;BME280;65232;48.358;2.122;2024-01-16T01:31:39;100662.88;;;-3.57;93.44
76404;BME280;65232;48.358;2.122;2024-01-16T01:32:05;100657.56;;;-3.56;93.60
76404;BME280;65232;48.358;2.122;2024-01-16T01:32:30;100657.84;;;-3.65;93.04
76404;BME280;65232;48.358;2.122;2024-01-16T01:32:56;100658.75;;;-3.66;93.36
76404;BME280;65232;48.358;2.122;2024-01-16T01:33:21;100664.00;;;-3.67;93.37
76404;BME280;65232;48.358;2.122;2024-01-16T01:33:46;100665.59;;;-3.62;94.04
76404;BME280;65232;48.358;2.122;2024-01-16T01:34:13;100658.66;;;-3.63;93.40
76404;BME280;65232;48.358;2.122;2024-01-16T01:34:41;100664.03;;;-3.69;93.63
76404;BME280;65232;48.358;2.122;2024-01-16T01:35:07;100663.97;;;-3.66;93.54
76404;BME280;65232;48.358;2.122;2024-01-16T01:35:32;100666.59;;;-3.66;93.58
76404;BME280;65232;48.358;2.122;2024-01-16T01:35:58;100667.56;;;-3.70;93.43
76404;BME280;65232;48.358;2.122;2024-01-16T01:36:23;100668.22;;;-3.62;93.06
76404;BME280;65232;48.358;2.122;2024-01-16T01:36:49;100662.31;;;-3.70;93.13
76404;BME280;65232;48.358;2.122;2024-01-16T01:37:14;100673.59;;;-3.68;93.26
76404;BME280;65232;48.358;2.122;2024-01-16T01:37:39;100668.44;;;-3.71;93.29
76404;BME280;65232;48.358;2.122;2024-01-16T01:38:05;100666.84;;;-3.75;93.17
76404;BME280;65232;48.358;2.122;2024-01-16T01:38:33;100665.84;;;-3.71;93.24
76404;BME280;65232;48.358;2.122;2024-01-16T01:38:58;100678.34;;;-3.82;93.07
76404;BME280;65232;48.358;2.122;2024-01-16T01:39:23;100667.09;;;-3.85;93.24
76404;BME280;65232;48.358;2.122;2024-01-16T01:39:49;100672.28;;;-3.84;93.09
76404;BME280;65232;48.358;2.122;2024-01-16T01:40:14;100671.50;;;-3.86;93.43
76404;BME280;65232;48.358;2.122;2024-01-16T01:40:43;100666.06;;;-3.78;93.96
76404;BME280;65232;48.358;2.122;2024-01-16T01:41:08;100673.19;;;-3.85;93.93
76404;BME280;65232;48.358;2.122;2024-01-16T01:41:37;100669.09;;;-3.95;94.00
76404;BME280;65232;48.358;2.122;2024-01-16T01:42:03;100668.31;;;-3.99;94.65
76404;BME280;65232;48.358;2.122;2024-01-16T01:42:28;100669.03;;;-3.92;94.57
76404;BME280;65232;48.358;2.122;2024-01-16T01:42:55;100671.50;;;-3.86;94.29
76404;BME280;65232;48.358;2.122;2024-01-16T01:43:21;100672.44;;;-3.88;94.62
76404;BME280;65232;48.358;2.122;2024-01-16T01:43:47;100667.16;;;-3.87;94.23
76404;BME280;65232;48.358;2.122;2024-01-16T01:44:12;100663.69;;;-3.87;94.12
76404;BME280;65232;48.358;2.122;2024-01-16T01:44:41;100669.63;;;-3.82;94.38
76404;BME280;65232;48.358;2.122;2024-01-16T01:45:08;100673.00;;;-3.77;94.22
76404;BME280;65232;48.358;2.122;2024-01-16T01:45:33;100668.31;;;-3.65;94.13
76404;BME280;65232;48.358;2.122;2024-01-16T01:46:17;100666.25;;;-3.53;93.75
76404;BME280;65232;48.358;2.122;2024-01-16T01:46:43;100672.94;;;-3.74;93.47
76404;BME280;65232;48.358;2.122;2024-01-16T01:47:10;100673.59;;;-3.68;93.64
76404;BME280;65232;48.358;2.122;2024-01-16T01:47:36;100677.97;;;-3.68;93.12
76404;BME280;65232;48.358;2.122;2024-01-16T01:48:02;100676.25;;;-3.69;93.10
76404;BME280;65232;48.358;2.122;2024-01-16T01:48:32;100674.44;;;-3.66;93.41
76404;BME280;65232;48.358;2.122;2024-01-16T01:48:58;100675.03;;;-3.56;93.32
76404;BME280;65232;48.358;2.122;2024-01-16T01:49:25;100676.94;;;-3.61;93.39
76404;BME280;65232;48.358;2.122;2024-01-16T01:49:51;100677.63;;;-3.56;93.49
76404;BME280;65232;48.358;2.122;2024-01-16T01:50:17;100682.81;;;-3.55;93.09
76404;BME280;65232;48.358;2.122;2024-01-16T01:50:42;100682.13;;;-3.60;92.77
76404;BME280;65232;48.358;2.122;2024-01-16T01:51:09;100672.75;;;-3.68;93.21
76404;BME280;65232;48.358;2.122;2024-01-16T01:51:35;100675.28;;;-3.65;93.21
76404;BME280;65232;48.358;2.122;2024-01-16T01:52:00;100680.63;;;-3.70;93.03
76404;BME280;65232;48.358;2.122;2024-01-16T01:52:26;100681.41;;;-3.66;93.58
76404;BME280;65232;48.358;2.122;2024-01-16T01:52:51;100680.81;;;-3.76;93.36
76404;BME280;65232;48.358;2.122;2024-01-16T01:53:17;100674.53;;;-3.70;93.13
76404;BME280;65232;48.358;2.122;2024-01-16T01:53:43;100673.81;;;-3.75;93.86
76404;BME280;65232;48.358;2.122;2024-01-16T01:54:09;100675.66;;;-3.79;93.82
76404;BME280;65232;48.358;2.122;2024-01-16T01:54:36;100678.78;;;-3.66;93.94
76404;BME280;65232;48.358;2.122;2024-01-16T01:55:03;100672.66;;;-3.65;93.48
76404;BME280;65232;48.358;2.122;2024-01-16T01:55:29;100678.84;;;-3.68;93.76
76404;BME280;65232;48.358;2.122;2024-01-16T01:55:55;100684.31;;;-3.77;93.50
76404;BME280;65232;48.358;2.122;2024-01-16T01:56:20;100682.66;;;-3.81;93.72
76404;BME280;65232;48.358;2.122;2024-01-16T01:56:47;100681.09;;;-3.86;93.89
76404;BME280;65232;48.358;2.122;2024-01-16T01:57:14;100682.84;;;-3.87;94.23
76404;BME280;65232;48.358;2.122;2024-01-16T01:57:40;100680.13;;;-3.84;94.48
76404;BME280;65232;48.358;2.122;2024-01-16T01:58:08;100682.75;;;-3.84;94.04
76404;BME280;65232;48.358;2.122;2024-01-16T01:58:34;100680.03;;;-3.79;93.37
76404;BME280;65232;48.358;2.122;2024-01-16T01:58:59;100682.63;;;-3.79;93.54
76404;BME280;65232;48.358;2.122;2024-01-16T01:59:25;100686.72;;;-3.69;93.16
76404;BME280;65232;48.358;2.122;2024-01-16T01:59:51;100677.06;;;-3.67;92.50
76404;BME280;65232;48.358;2.122;2024-01-16T02:00:17;100686.72;;;-3.69;92.36
76404;BME280;65232;48.358;2.122;2024-01-16T02:00:44;100679.88;;;-3.73;92.45
76404;BME280;65232;48.358;2.122;2024-01-16T02:01:10;100679.09;;;-3.77;92.49
76404;BME280;65232;48.358;2.122;2024-01-16T02:01:36;100682.78;;;-3.85;92.58
76404;BME280;65232;48.358;2.122;2024-01-16T02:02:04;100679.44;;;-3.91;93.07
76404;BME280;65232;48.358;2.122;2024-01-16T02:02:30;100679.28;;;-3.84;93.34
76404;BME280;65232;48.358;2.122;2024-01-16T02:02:56;100671.31;;;-3.80;92.98
76404;BME280;65232;48.358;2.122;2024-01-16T02:03:23;100673.03;;;-3.79;93.02
76404;BME280;65232;48.358;2.122;2024-01-16T02:03:52;100680.09;;;-3.82;92.80
76404;BME280;65232;48.358;2.122;2024-01-16T02:04:17;100675.94;;;-3.89;92.70
76404;BME280;65232;48.358;2.122;2024-01-16T02:04:44;100678.59;;;-3.91;93.37
76404;BME280;65232;48.358;2.122;2024-01-16T02:05:12;100674.19;;;-3.89;93.86
76404;BME280;65232;48.358;2.122;2024-01-16T02:05:38;100677.75;;;-3.93;93.89
76404;BME280;65232;48.358;2.122;2024-01-16T02:06:04;100682.75;;;-3.84;93.95
76404;BME280;65232;48.358;2.122;2024-01-16T02:06:29;100678.19;;;-3.76;93.63
76404;BME280;65232;48.358;2.122;2024-01-16T02:06:55;100673.81;;;-3.75;93.58
76404;BME280;65232;48.358;2.122;2024-01-16T02:07:22;100673.75;;;-3.72;93.32
76404;BME280;65232;48.358;2.122;2024-01-16T02:07:47;100664.94;;;-3.70;93.30
76404;BME280;65232;48.358;2.122;2024-01-16T02:08:13;100668.53;;;-3.72;93.60
76404;BME280;65232;48.358;2.122;2024-01-16T02:08:39;100662.53;;;-3.77;93.60
76404;BME280;65232;48.358;2.122;2024-01-16T02:09:05;100666.75;;;-3.72;93.57
76404;BME280;65232;48.358;2.122;2024-01-16T02:09:32;100677.91;;;-3.65;93.30
76404;BME280;65232;48.358;2.122;2024-01-16T02:09:58;100664.75;;;-3.62;93.15
76404;BME280;65232;48.358;2.122;2024-01-16T02:10:25;100671.03;;;-3.69;93.08
76404;BME280;65232;48.358;2.122;2024-01-16T02:10:51;100664.78;;;-3.64;93.58
76404;BME280;65232;48.358;2.122;2024-01-16T02:11:16;100666.75;;;-3.72;93.17
76404;BME280;65232;48.358;2.122;2024-01-16T02:11:42;100661.44;;;-3.69;93.67
76404;BME280;65232;48.358;2.122;2024-01-16T02:12:08;100665.94;;;-3.74;93.74
76404;BME280;65232;48.358;2.122;2024-01-16T02:12:33;100657.06;;;-3.68;93.81
76404;BME280;65232;48.358;2.122;2024-01-16T02:12:59;100661.38;;;-3.67;93.59
76404;BME280;65232;48.358;2.122;2024-01-16T02:13:25;100652.56;;;-3.63;93.25
76404;BME280;65232;48.358;2.122;2024-01-16T02:13:50;100656.94;;;-3.64;93.23
76404;BME280;65232;48.358;2.122;2024-01-16T02:14:16;100653.50;;;-3.66;93.07
76404;BME280;65232;48.358;2.122;2024-01-16T02:14:41;100650.84;;;-3.64;92.86
76404;BME280;65232;48.358;2.122;2024-01-16T02:15:07;100653.50;;;-3.66;93.41
76404;BME280;65232;48.358;2.122;2024-01-16T02:15:33;100652.31;;;-3.54;93.35